createdAt,value
2019-06-07T00:04:03.886Z,10.76
2019-06-07T00:14:05.067Z,10.68
2019-06-07T00:24:06.174Z,11.26
2019-06-07T00:34:07.099Z,11.55
2019-06-07T00:44:07.866Z,11.47
2019-06-07T00:54:08.834Z,11.83
2019-06-07T01:04:10.766Z,11.99
2019-06-07T01:14:11.420Z,11.71
2019-06-07T01:24:12.796Z,10.88
2019-06-07T01:34:13.517Z,11.51
2019-06-07T01:44:14.464Z,11.38
2019-06-07T02:04:21.603Z,11.60
2019-06-07T02:14:25.348Z,11.44
2019-06-07T02:24:25.265Z,11.51
2019-06-07T02:34:28.185Z,11.14
2019-06-07T02:44:33.045Z,11.06
2019-06-07T02:54:37.029Z,10.63
2019-06-07T03:04:41.308Z,10.93
2019-06-07T03:14:39.039Z,10.71
2019-06-07T03:24:44.129Z,10.77
2019-06-07T03:34:44.975Z,10.56
2019-06-07T03:44:45.757Z,9.47
2019-06-07T03:54:46.837Z,10.94
2019-06-07T04:04:47.792Z,10.58
2019-06-07T04:14:48.791Z,10.65
2019-06-07T04:24:49.920Z,11.82
2019-06-07T04:34:50.906Z,12.41
2019-06-07T04:44:51.974Z,11.70
2019-06-07T04:54:52.992Z,11.90
2019-06-07T05:04:53.914Z,11.88
2019-06-07T05:14:54.595Z,12.59
2019-06-07T05:24:55.605Z,12.10
2019-06-07T05:34:56.497Z,11.07
2019-06-07T05:44:57.308Z,12.22
2019-06-07T05:54:58.086Z,15.26
2019-06-07T06:04:58.957Z,15.63
2019-06-07T06:14:59.876Z,14.83
2019-06-07T06:25:30.627Z,16.07
2019-06-07T06:35:06.705Z,15.81
2019-06-07T06:45:09.412Z,15.67
2019-06-07T06:55:11.563Z,18.31
2019-06-07T07:05:12.898Z,18.83
2019-06-07T07:15:15.564Z,18.77
2019-06-07T07:25:16.285Z,18.74
2019-06-07T07:35:17.057Z,18.67
2019-06-07T07:45:18.071Z,19.29
2019-06-07T07:55:19.170Z,18.65
2019-06-07T08:05:28.974Z,19.42
2019-06-07T08:15:22.640Z,19.44
2019-06-07T08:25:23.851Z,20.26
2019-06-07T08:36:03.676Z,20.43
2019-06-07T08:45:28.317Z,21.38
2019-06-07T08:55:29.258Z,19.82
2019-06-07T09:05:31.393Z,20.06
2019-06-07T09:15:32.461Z,19.79
2019-06-07T09:25:52.441Z,20.20
2019-06-07T09:35:37.249Z,19.90
2019-06-07T09:45:38.097Z,20.91
2019-06-07T09:55:39.168Z,21.59
2019-06-07T10:05:39.970Z,21.87
2019-06-07T10:15:40.668Z,22.19
2019-06-07T10:25:43.899Z,22.55
2019-06-07T10:35:44.962Z,21.98
2019-06-07T10:45:45.621Z,22.93
2019-06-07T10:55:46.385Z,22.13
2019-06-07T11:05:47.385Z,23.00
2019-06-07T11:15:48.477Z,23.40
2019-06-07T11:25:49.461Z,24.32
2019-06-07T11:35:50.199Z,24.20
2019-06-07T11:45:50.892Z,24.79
2019-06-07T11:56:05.401Z,25.75
2019-06-07T12:06:06.088Z,25.60
2019-06-07T12:16:09.073Z,26.50
2019-06-07T12:26:10.282Z,26.57
2019-06-07T12:36:13.515Z,27.39
2019-06-07T12:46:19.540Z,27.16
2019-06-07T12:56:17.738Z,26.27
2019-06-07T13:06:19.523Z,25.98
2019-06-07T13:16:22.007Z,27.01
2019-06-07T13:26:23.798Z,26.41
2019-06-07T13:36:25.896Z,27.48
2019-06-07T13:46:27.294Z,26.48
2019-06-07T13:56:28.463Z,27.54
2019-06-07T14:06:34.136Z,26.60
2019-06-07T14:16:34.880Z,27.02
2019-06-07T14:26:35.683Z,27.01
2019-06-07T14:36:37.122Z,28.33
2019-06-07T14:46:37.797Z,27.22
2019-06-07T14:56:38.528Z,27.41
2019-06-07T15:06:39.863Z,28.94
2019-06-07T15:16:40.763Z,28.68
2019-06-07T15:26:41.632Z,27.09
2019-06-07T15:36:43.339Z,26.31
2019-06-07T15:46:44.091Z,25.95
2019-06-07T15:56:44.842Z,25.47
2019-06-07T16:06:45.680Z,25.34
2019-06-07T16:16:47.492Z,23.75
2019-06-07T16:26:49.607Z,22.30
2019-06-07T16:36:51.338Z,22.30
2019-06-07T16:46:52.097Z,22.43
2019-06-07T16:56:52.782Z,21.63
2019-06-07T17:06:53.720Z,18.00
2019-06-07T17:16:54.629Z,16.28
2019-06-07T17:26:55.360Z,15.76
2019-06-07T17:36:56.102Z,14.52
2019-06-07T17:46:56.896Z,13.49
2019-06-07T17:56:57.986Z,12.94
2019-06-07T18:06:59.069Z,13.06
2019-06-07T18:16:59.797Z,12.91
2019-06-07T18:27:01.532Z,13.18
2019-06-07T18:37:02.778Z,13.13
2019-06-07T18:47:03.500Z,13.03
2019-06-07T18:57:04.206Z,13.70
2019-06-07T19:07:04.997Z,13.82
2019-06-07T19:17:05.752Z,13.11
2019-06-07T19:27:06.416Z,14.04
2019-06-07T19:37:07.169Z,14.88
2019-06-07T19:47:08.293Z,14.30
2019-06-07T19:57:09.119Z,14.01
2019-06-07T20:07:10.131Z,14.26
2019-06-07T20:17:11.302Z,14.27
2019-06-07T20:27:12.085Z,14.25
2019-06-07T20:37:13.645Z,14.43
2019-06-07T20:47:14.478Z,14.10
2019-06-07T20:57:16.245Z,14.50
2019-06-07T21:07:17.299Z,13.96
2019-06-07T21:17:19.356Z,13.70
2019-06-07T21:27:21.059Z,13.83
2019-06-07T21:37:21.801Z,14.04
2019-06-07T21:47:22.771Z,14.04
2019-06-07T21:57:23.398Z,13.90
2019-06-07T22:07:24.907Z,14.24
2019-06-07T22:17:26.918Z,14.16
2019-06-07T22:27:28.219Z,13.99
2019-06-07T22:37:38.011Z,14.04
2019-06-07T22:47:36.569Z,13.91
2019-06-07T22:57:37.725Z,13.88
2019-06-07T23:07:38.814Z,14.23
2019-06-07T23:17:39.557Z,14.12
2019-06-07T23:27:40.622Z,14.04
2019-06-07T23:37:41.796Z,14.43
2019-06-07T23:47:42.465Z,14.14
2019-06-07T23:57:43.116Z,14.31
